Time;durP1;ratioP1;P1;durP2;ratioP2;P2;SDS_P1;SDS_P2;PMS_P1;PMS_P2;Temp;Humidity;BMP_temperature;BMP_pressure;BME280_temperature;BME280_humidity;BME280_pressure;Samples;Min_cycle;Max_cycle;Signal;HPM_P1;HPM_P2
2021/12/03 00:01:14;;;;;;;8.05;3.70;;;0.60;99.90;;;;;;5075360;28;20040;-68
2021/12/03 00:03:40;;;;;;;7.90;3.65;;;0.50;99.90;;;;;;5092207;28;20144;-66
2021/12/03 00:06:06;;;;;;;8.35;3.95;;;0.60;99.90;;;;;;5092274;28;20075;-65
2021/12/03 00:08:31;;;;;;;8.88;4.05;;;0.60;99.90;;;;;;5091437;28;20541;-65
2021/12/03 00:11:00;;;;;;;8.57;3.83;;;0.50;99.90;;;;;;5091915;28;20056;-69
2021/12/03 00:13:28;;;;;;;6.72;3.88;;;0.50;99.90;;;;;;5092261;28;20056;-65
2021/12/03 00:15:55;;;;;;;9.63;4.10;;;0.50;99.90;;;;;;5091814;28;20094;-69
2021/12/03 00:18:21;;;;;;;9.23;4.38;;;0.50;99.90;;;;;;5091897;28;20098;-68
2021/12/03 00:20:48;;;;;;;11.27;4.32;;;0.50;99.90;;;;;;5095357;28;20028;-68
2021/12/03 00:23:14;;;;;;;11.18;4.80;;;0.50;99.90;;;;;;5095670;28;20032;-68
2021/12/03 00:25:40;;;;;;;9.90;5.38;;;0.40;99.90;;;;;;5095426;28;20416;-66
2021/12/03 00:28:06;;;;;;;11.35;5.75;;;0.50;99.90;;;;;;5095179;28;20040;-65
2021/12/03 00:30:33;;;;;;;9.07;5.32;;;0.40;99.90;;;;;;5095373;28;20146;-65
2021/12/03 00:32:59;;;;;;;10.82;5.85;;;0.50;99.90;;;;;;5077906;28;20082;-68
2021/12/03 00:35:25;;;;;;;11.88;6.97;;;0.40;99.90;;;;;;5095370;28;20064;-68
2021/12/03 00:37:51;;;;;;;11.55;6.43;;;0.40;99.90;;;;;;5094914;28;20469;-68
2021/12/03 00:40:25;;;;;;;9.98;7.25;;;0.40;99.90;;;;;;5094658;28;20036;-68
2021/12/03 00:42:51;;;;;;;11.18;7.47;;;0.40;99.90;;;;;;5095221;28;20520;-69
2021/12/03 00:45:17;;;;;;;12.32;8.80;;;0.40;99.90;;;;;;5094972;28;20079;-68
2021/12/03 00:47:43;;;;;;;13.70;8.70;;;0.30;99.90;;;;;;5095616;28;20770;-68
2021/12/03 00:50:12;;;;;;;12.32;8.48;;;0.30;99.90;;;;;;5094946;28;20036;-69
2021/12/03 00:52:38;;;;;;;14.25;8.35;;;0.30;99.90;;;;;;5074900;28;20064;-68
2021/12/03 00:55:05;;;;;;;13.82;8.77;;;0.40;99.90;;;;;;5075589;28;20083;-68
2021/12/03 00:57:31;;;;;;;17.15;8.65;;;0.40;99.90;;;;;;5077558;28;20032;-69
2021/12/03 00:59:57;;;;;;;13.25;8.45;;;0.40;99.90;;;;;;5094974;28;20116;-68
2021/12/03 01:02:22;;;;;;;14.50;9.45;;;0.30;99.90;;;;;;5095531;28;20057;-68
2021/12/03 01:04:48;;;;;;;11.30;8.82;;;0.40;99.90;;;;;;5094892;28;20048;-68
2021/12/03 01:07:15;;;;;;;16.38;10.13;;;0.30;99.90;;;;;;5094047;28;20368;-68
2021/12/03 01:09:41;;;;;;;15.25;9.57;;;0.30;99.90;;;;;;5094615;28;20054;-68
2021/12/03 01:12:08;;;;;;;14.23;8.93;;;0.30;99.90;;;;;;5077558;28;20350;-68
2021/12/03 01:14:36;;;;;;;13.57;9.68;;;0.30;99.90;;;;;;5094565;28;20036;-68
2021/12/03 01:17:03;;;;;;;12.55;9.40;;;0.40;99.90;;;;;;5093918;28;20044;-68
2021/12/03 01:19:29;;;;;;;15.10;10.85;;;0.40;99.90;;;;;;5094455;28;20050;-67
2021/12/03 01:21:54;;;;;;;15.10;10.43;;;0.40;99.90;;;;;;5077663;28;20039;-68
2021/12/03 01:24:20;;;;;;;13.32;9.55;;;0.40;99.90;;;;;;5095519;28;20079;-69
2021/12/03 01:26:46;;;;;;;13.27;9.38;;;0.40;99.90;;;;;;5095119;28;20454;-68
2021/12/03 01:29:12;;;;;;;13.98;9.77;;;0.40;99.90;;;;;;5094288;28;20046;-69
2021/12/03 01:31:38;;;;;;;15.73;9.65;;;0.30;99.90;;;;;;5094233;28;20123;-68
2021/12/03 01:34:04;;;;;;;13.07;9.98;;;0.30;99.90;;;;;;5095404;28;20047;-69
2021/12/03 01:36:30;;;;;;;14.75;10.25;;;0.30;99.90;;;;;;5093692;28;20036;-69
2021/12/03 01:38:56;;;;;;;16.08;10.05;;;0.40;99.90;;;;;;5094201;28;20036;-68
2021/12/03 01:41:22;;;;;;;15.05;10.52;;;0.40;99.90;;;;;;5094138;28;20354;-68
2021/12/03 01:43:48;;;;;;;13.73;10.02;;;0.40;99.90;;;;;;5093834;28;20109;-68
2021/12/03 01:46:18;;;;;;;15.70;10.90;;;0.40;99.90;;;;;;5094521;28;20068;-68
2021/12/03 01:48:44;;;;;;;15.05;11.07;;;0.50;99.90;;;;;;5094102;28;20048;-68
2021/12/03 01:51:10;;;;;;;17.80;10.60;;;0.50;99.90;;;;;;5094625;28;20062;-69
2021/12/03 01:53:37;;;;;;;14.43;11.23;;;0.50;99.90;;;;;;5082632;28;20051;-68
2021/12/03 01:56:09;;;;;;;16.92;10.55;;;0.50;99.90;;;;;;5082381;28;20040;-68
2021/12/03 01:58:35;;;;;;;15.25;10.68;;;0.50;99.90;;;;;;5093349;28;20042;-68
2021/12/03 02:01:05;;;;;;;15.07;10.27;;;0.50;99.90;;;;;;5094763;28;20391;-68
2021/12/03 02:03:34;;;;;;;14.77;11.48;;;0.50;99.90;;;;;;5093969;28;20427;-68
2021/12/03 02:06:01;;;;;;;16.88;11.80;;;0.50;99.90;;;;;;5094416;28;20044;-67
2021/12/03 02:08:27;;;;;;;15.27;11.27;;;0.50;99.90;;;;;;5093128;28;20124;-68
2021/12/03 02:10:53;;;;;;;16.90;10.90;;;0.50;99.90;;;;;;5076463;28;20135;-68
2021/12/03 02:13:20;;;;;;;16.80;11.82;;;0.50;99.90;;;;;;5094479;28;20082;-67
2021/12/03 02:15:47;;;;;;;15.30;10.98;;;0.50;99.90;;;;;;5094089;28;20150;-68
2021/12/03 02:18:15;;;;;;;15.43;11.05;;;0.50;99.90;;;;;;5093188;28;20426;-68
2021/12/03 02:20:54;;;;;;;17.27;11.10;;;0.50;99.90;;;;;;5094313;28;20181;-68
2021/12/03 02:23:21;;;;;;;15.75;10.77;;;0.60;99.90;;;;;;5094535;28;20430;-68
2021/12/03 02:25:48;;;;;;;17.10;12.20;;;0.60;99.90;;;;;;5094064;28;20036;-68
2021/12/03 02:28:16;;;;;;;17.95;11.30;;;0.60;99.90;;;;;;5076223;28;20024;-68
2021/12/03 02:30:43;;;;;;;16.95;12.27;;;0.60;99.90;;;;;;5093060;28;20043;-68
2021/12/03 02:33:09;;;;;;;16.27;11.73;;;0.60;99.90;;;;;;5092993;28;20051;-68
2021/12/03 02:35:36;;;;;;;15.98;11.98;;;0.60;99.90;;;;;;5092924;28;20051;-67
2021/12/03 02:38:02;;;;;;;14.68;11.15;;;0.60;99.90;;;;;;5093636;28;20055;-68
2021/12/03 02:40:28;;;;;;;16.42;11.18;;;0.60;99.90;;;;;;5092999;28;20032;-68
2021/12/03 02:42:55;;;;;;;14.63;11.27;;;0.60;99.90;;;;;;5075960;28;20035;-68
2021/12/03 02:45:21;;;;;;;15.65;11.50;;;0.60;99.90;;;;;;5092972;28;20059;-67
2021/12/03 02:47:47;;;;;;;15.50;11.65;;;0.60;99.90;;;;;;5092564;28;20048;-67
2021/12/03 02:50:14;;;;;;;18.58;12.02;;;0.60;99.90;;;;;;5093066;28;20040;-68
2021/12/03 02:52:41;;;;;;;18.60;12.40;;;0.50;99.90;;;;;;5089468;28;20029;-68
2021/12/03 02:55:08;;;;;;;20.65;12.75;;;0.50;99.90;;;;;;5073347;28;20436;-68
2021/12/03 02:57:34;;;;;;;15.52;11.18;;;0.60;99.90;;;;;;5076085;28;20055;-68
2021/12/03 03:00:02;;;;;;;17.55;11.95;;;0.60;99.90;;;;;;5092925;28;20036;-67
2021/12/03 03:02:28;;;;;;;16.85;11.70;;;0.60;99.90;;;;;;5075698;28;20043;-68
2021/12/03 03:04:53;;;;;;;16.27;11.98;;;0.60;99.90;;;;;;5092728;28;20044;-68
2021/12/03 03:07:20;;;;;;;16.20;11.98;;;0.60;99.90;;;;;;5092320;28;20044;-68
2021/12/03 03:09:46;;;;;;;15.38;12.73;;;0.60;99.90;;;;;;5092569;28;20040;-68
2021/12/03 03:12:13;;;;;;;19.00;12.18;;;0.60;99.90;;;;;;5092369;28;20048;-68
2021/12/03 03:14:50;;;;;;;16.80;11.55;;;0.60;99.90;;;;;;5092480;28;20071;-68
2021/12/03 03:17:16;;;;;;;19.75;12.93;;;0.70;99.90;;;;;;5091846;28;20092;-67
2021/12/03 03:19:42;;;;;;;15.70;12.23;;;0.60;99.90;;;;;;5092554;28;20050;-68
2021/12/03 03:22:08;;;;;;;18.02;12.27;;;0.70;99.90;;;;;;5092655;28;20039;-68
2021/12/03 03:24:34;;;;;;;15.98;12.40;;;0.70;99.90;;;;;;5075530;28;20068;-69
2021/12/03 03:27:01;;;;;;;18.00;13.77;;;0.70;99.90;;;;;;5092163;28;20036;-68
2021/12/03 03:29:27;;;;;;;15.40;12.38;;;0.60;99.90;;;;;;5092698;28;20052;-68
2021/12/03 03:31:53;;;;;;;20.05;13.55;;;0.70;99.90;;;;;;5092312;28;20397;-66
2021/12/03 03:34:19;;;;;;;19.00;12.93;;;0.70;99.90;;;;;;5093294;28;20063;-65
2021/12/03 03:36:44;;;;;;;18.52;12.23;;;0.70;99.90;;;;;;5092974;28;20043;-65
2021/12/03 03:39:13;;;;;;;16.95;12.50;;;0.70;99.90;;;;;;5093553;28;20040;-66
2021/12/03 03:41:40;;;;;;;16.25;12.02;;;0.70;99.90;;;;;;5092249;28;20039;-65
2021/12/03 03:44:06;;;;;;;18.20;12.00;;;0.70;99.90;;;;;;5092576;28;20441;-65
2021/12/03 03:46:32;;;;;;;15.93;11.32;;;0.70;99.90;;;;;;5092727;28;20085;-66
2021/12/03 03:48:57;;;;;;;17.85;13.38;;;0.70;99.90;;;;;;5092399;28;20044;-67
2021/12/03 03:51:23;;;;;;;18.38;12.57;;;0.70;99.90;;;;;;5092258;28;20105;-68
2021/12/03 03:53:49;;;;;;;15.48;12.02;;;0.70;99.90;;;;;;5080447;28;20051;-68
2021/12/03 03:56:15;;;;;;;18.65;12.00;;;0.70;99.90;;;;;;5086192;28;20432;-68
2021/12/03 03:58:41;;;;;;;17.45;11.95;;;0.70;99.90;;;;;;5079014;28;20067;-68
2021/12/03 04:01:09;;;;;;;16.25;12.15;;;0.70;99.90;;;;;;5096082;28;20040;-67
2021/12/03 04:03:35;;;;;;;15.70;11.88;;;0.70;99.90;;;;;;5095864;28;20127;-67
2021/12/03 04:06:02;;;;;;;16.95;12.88;;;0.70;99.90;;;;;;5095302;28;20423;-68
2021/12/03 04:08:29;;;;;;;19.60;11.98;;;0.70;99.90;;;;;;5078963;28;20074;-68
2021/12/03 04:10:59;;;;;;;17.67;12.00;;;0.70;99.90;;;;;;5095953;28;20048;-68
2021/12/03 04:13:26;;;;;;;21.35;12.68;;;0.70;99.90;;;;;;5095903;28;20048;-68
2021/12/03 04:15:53;;;;;;;16.05;11.90;;;0.70;99.90;;;;;;5095660;28;20048;-68
2021/12/03 04:18:19;;;;;;;16.60;12.15;;;0.70;99.90;;;;;;5095488;28;20123;-64
2021/12/03 04:20:45;;;;;;;16.20;11.27;;;0.70;99.90;;;;;;5095625;28;20028;-68
2021/12/03 04:23:16;;;;;;;17.50;11.75;;;0.70;99.90;;;;;;5095759;28;20051;-68
2021/12/03 04:25:42;;;;;;;16.30;11.65;;;0.70;99.90;;;;;;5095245;28;20050;-68
2021/12/03 04:28:08;;;;;;;14.60;10.95;;;0.70;99.90;;;;;;5095388;28;20039;-68
2021/12/03 04:30:34;;;;;;;19.02;11.50;;;0.80;99.90;;;;;;5096318;28;20035;-67
2021/12/03 04:33:00;;;;;;;15.52;11.30;;;0.80;99.90;;;;;;5095382;28;20123;-67
2021/12/03 04:35:27;;;;;;;16.55;11.30;;;0.80;99.90;;;;;;5095475;28;20127;-67
2021/12/03 04:37:57;;;;;;;15.60;11.80;;;0.80;99.90;;;;;;5095230;28;20040;-68
2021/12/03 04:40:23;;;;;;;15.38;10.80;;;0.80;99.90;;;;;;5095520;28;20051;-67
2021/12/03 04:42:49;;;;;;;17.35;11.55;;;0.90;99.90;;;;;;5095565;28;20112;-67
2021/12/03 04:45:19;;;;;;;18.35;10.65;;;0.90;99.90;;;;;;5095210;28;20090;-68
2021/12/03 04:47:46;;;;;;;19.17;11.30;;;0.90;99.90;;;;;;5075596;28;20343;-68
2021/12/03 04:50:13;;;;;;;16.10;10.63;;;0.90;99.90;;;;;;5075016;28;20041;-67
2021/12/03 04:52:39;;;;;;;16.33;9.80;;;0.90;99.90;;;;;;5077826;28;20032;-68
2021/12/03 04:55:06;;;;;;;14.52;9.90;;;0.90;99.90;;;;;;5095233;28;20104;-68
2021/12/03 04:57:32;;;;;;;17.35;9.85;;;0.90;99.90;;;;;;5094264;28;20040;-68
2021/12/03 04:59:58;;;;;;;14.27;9.52;;;0.90;99.90;;;;;;5094999;28;20051;-68
2021/12/03 05:02:25;;;;;;;15.32;9.15;;;1.00;99.90;;;;;;5096046;28;20044;-68
2021/12/03 05:04:53;;;;;;;15.70;9.63;;;1.00;99.90;;;;;;5094501;28;20040;-68
2021/12/03 05:09:54;;;;;;;15.68;10.15;;;1.10;99.90;;;;;;5096093;28;20118;-68
2021/12/03 05:12:19;;;;;;;13.95;9.48;;;1.20;99.90;;;;;;5094251;28;20062;-67
2021/12/03 05:14:45;;;;;;;16.77;8.93;;;1.20;99.90;;;;;;5094559;28;20044;-67
2021/12/03 05:17:11;;;;;;;13.02;8.32;;;1.20;99.90;;;;;;5093991;28;20125;-67
2021/12/03 05:19:36;;;;;;;12.82;8.13;;;1.20;99.90;;;;;;5094366;28;20373;-67
2021/12/03 05:22:02;;;;;;;13.40;9.00;;;1.30;99.90;;;;;;5095443;28;20112;-67
2021/12/03 05:24:28;;;;;;;14.70;7.57;;;1.20;99.90;;;;;;5094296;28;20067;-67
2021/12/03 05:26:53;;;;;;;16.35;8.82;;;1.30;99.90;;;;;;5094002;28;20054;-68
2021/12/03 05:29:21;;;;;;;13.63;7.47;;;1.30;99.90;;;;;;5094508;28;20040;-67
2021/12/03 05:31:48;;;;;;;12.80;8.05;;;1.20;99.90;;;;;;5095298;28;20044;-67
2021/12/03 05:34:15;;;;;;;15.70;7.93;;;1.30;99.90;;;;;;5094125;28;20040;-67
2021/12/03 05:36:41;;;;;;;11.32;7.68;;;1.30;99.90;;;;;;5094865;28;20032;-67
2021/12/03 05:39:07;;;;;;;11.60;7.25;;;1.30;99.90;;;;;;5095304;28;20399;-67
2021/12/03 05:41:34;;;;;;;12.10;7.07;;;1.30;99.90;;;;;;5094542;28;20039;-67
2021/12/03 05:44:00;;;;;;;11.32;6.65;;;1.40;99.90;;;;;;5093967;28;20169;-67
2021/12/03 05:46:26;;;;;;;10.93;7.05;;;1.40;99.90;;;;;;5093393;28;20052;-68
2021/12/03 05:48:52;;;;;;;12.85;7.00;;;1.40;99.90;;;;;;5095044;28;20047;-67
2021/12/03 05:51:18;;;;;;;10.90;6.43;;;1.40;99.90;;;;;;5082588;28;20190;-68
2021/12/03 05:53:44;;;;;;;9.80;6.38;;;1.50;99.90;;;;;;5074302;28;20090;-67
2021/12/03 05:56:09;;;;;;;14.32;6.55;;;1.50;99.90;;;;;;5074342;28;20143;-67
2021/12/03 05:58:35;;;;;;;10.23;6.50;;;1.50;99.90;;;;;;5073364;28;20044;-68
2021/12/03 06:01:01;;;;;;;13.27;6.53;;;1.50;99.90;;;;;;5073005;28;20514;-67
2021/12/03 06:03:27;;;;;;;12.02;6.25;;;1.60;99.90;;;;;;5073241;28;20412;-67
2021/12/03 06:05:53;;;;;;;13.25;6.40;;;1.60;99.90;;;;;;5078371;28;20048;-66
2021/12/03 06:08:18;;;;;;;17.63;6.93;;;1.60;99.90;;;;;;5073927;28;20112;-67
2021/12/03 06:10:44;;;;;;;11.55;6.15;;;1.60;99.90;;;;;;5075762;28;20384;-66
2021/12/03 06:13:10;;;;;;;12.02;6.65;;;1.60;99.90;;;;;;5073833;28;20686;-67
2021/12/03 06:15:36;;;;;;;10.85;6.40;;;1.70;99.90;;;;;;5089413;28;20048;-67
2021/12/03 06:18:02;;;;;;;11.98;6.93;;;1.70;99.90;;;;;;5072277;28;20416;-66
2021/12/03 06:20:29;;;;;;;12.73;6.97;;;1.60;99.90;;;;;;5072941;28;20446;-65
2021/12/03 06:22:55;;;;;;;14.15;7.65;;;1.70;99.90;;;;;;5072906;28;20048;-65
2021/12/03 06:25:21;;;;;;;16.02;7.40;;;1.70;99.90;;;;;;5085955;28;20036;-65
2021/12/03 06:27:48;;;;;;;10.48;6.82;;;1.70;99.90;;;;;;5092828;28;20127;-66
2021/12/03 06:30:17;;;;;;;11.13;7.25;;;1.70;99.90;;;;;;5094412;28;20043;-67
2021/12/03 06:32:42;;;;;;;12.77;7.47;;;1.70;99.90;;;;;;5094004;28;20347;-67
2021/12/03 06:35:11;;;;;;;15.13;8.45;;;1.80;99.90;;;;;;5094541;28;20123;-66
2021/12/03 06:37:37;;;;;;;15.23;8.32;;;1.80;99.90;;;;;;5092675;28;20050;-66
2021/12/03 06:40:04;;;;;;;14.45;7.95;;;1.80;99.90;;;;;;5093115;28;20036;-66
2021/12/03 06:42:33;;;;;;;13.05;8.25;;;1.80;99.90;;;;;;5094350;28;20118;-68
2021/12/03 06:44:59;;;;;;;15.50;9.63;;;1.80;99.90;;;;;;5093188;28;20044;-66
2021/12/03 06:47:24;;;;;;;17.40;9.10;;;1.80;99.90;;;;;;5092355;28;20522;-66
2021/12/03 06:49:50;;;;;;;12.43;7.97;;;1.80;99.90;;;;;;5092857;28;20047;-67
2021/12/03 06:52:16;;;;;;;13.55;9.05;;;1.80;99.90;;;;;;5092749;28;20040;-68
2021/12/03 06:54:43;;;;;;;14.25;8.32;;;1.90;99.90;;;;;;5073898;28;20083;-68
2021/12/03 06:57:10;;;;;;;16.38;8.40;;;1.90;99.90;;;;;;5087641;28;20047;-68
2021/12/03 06:59:37;;;;;;;14.80;8.35;;;1.90;99.90;;;;;;5075382;28;20032;-68
2021/12/03 07:02:04;;;;;;;12.88;7.78;;;1.90;99.90;;;;;;5090978;28;20048;-67
2021/12/03 07:04:29;;;;;;;17.55;9.00;;;1.90;99.90;;;;;;5083200;28;20037;-66
2021/12/03 07:06:55;;;;;;;13.38;7.60;;;2.00;99.90;;;;;;5085761;28;20036;-65
2021/12/03 07:09:21;;;;;;;14.07;7.72;;;2.00;99.90;;;;;;5092628;28;20051;-68
2021/12/03 07:11:47;;;;;;;15.85;8.10;;;2.00;99.90;;;;;;5092235;28;20066;-68
2021/12/03 07:14:12;;;;;;;15.35;7.65;;;2.00;99.90;;;;;;5093331;28;20465;-68
2021/12/03 07:16:38;;;;;;;12.70;7.07;;;2.00;99.90;;;;;;5091684;28;20056;-68
2021/12/03 07:19:04;;;;;;;13.98;6.13;;;2.00;99.90;;;;;;5092615;28;20040;-68
2021/12/03 07:21:30;;;;;;;15.23;6.10;;;2.00;99.90;;;;;;5092317;28;20076;-67
2021/12/03 07:23:56;;;;;;;13.18;6.03;;;2.00;99.90;;;;;;5060926;28;20087;-67
2021/12/03 07:26:24;;;;;;;12.43;6.60;;;2.10;99.90;;;;;;5091814;28;20044;-67
2021/12/03 07:28:51;;;;;;;12.57;6.82;;;2.20;99.90;;;;;;5095155;28;20040;-68
2021/12/03 07:31:16;;;;;;;13.27;7.90;;;2.30;99.90;;;;;;5096243;28;20047;-68
2021/12/03 07:33:42;;;;;;;13.50;8.18;;;2.30;99.90;;;;;;5096336;28;20046;-67
2021/12/03 07:36:08;;;;;;;17.42;10.13;;;2.30;99.90;;;;;;5095991;28;20123;-68
2021/12/03 07:38:35;;;;;;;19.10;10.57;;;2.40;99.90;;;;;;5096447;28;20040;-67
2021/12/03 07:41:03;;;;;;;20.73;11.63;;;2.40;99.90;;;;;;5096262;28;20036;-67
2021/12/03 07:43:28;;;;;;;20.55;12.10;;;2.40;99.90;;;;;;5096371;28;20407;-67
2021/12/03 07:45:54;;;;;;;25.90;13.55;;;2.50;99.90;;;;;;5095656;28;20032;-67
2021/12/03 07:48:22;;;;;;;23.02;13.10;;;2.50;99.90;;;;;;5095784;28;20036;-67
2021/12/03 07:50:49;;;;;;;26.15;14.70;;;2.50;99.90;;;;;;5079394;28;20047;-67
2021/12/03 07:53:18;;;;;;;26.70;14.35;;;2.60;99.90;;;;;;5070983;28;20154;-67
2021/12/03 07:55:47;;;;;;;27.27;14.77;;;2.60;99.90;;;;;;5078438;28;20453;-67
2021/12/03 07:58:14;;;;;;;23.35;13.88;;;2.60;99.90;;;;;;5096271;28;20036;-68
2021/12/03 08:00:40;;;;;;;23.23;13.70;;;2.60;99.90;;;;;;5095546;28;20128;-68
2021/12/03 08:03:06;;;;;;;22.77;13.82;;;2.60;99.90;;;;;;5095838;28;20042;-67
2021/12/03 08:05:32;;;;;;;22.58;13.40;;;2.60;99.90;;;;;;5095815;28;20056;-68
2021/12/03 08:07:59;;;;;;;20.95;14.25;;;2.60;99.90;;;;;;5095568;28;20059;-67
2021/12/03 08:10:26;;;;;;;25.20;14.13;;;2.60;99.90;;;;;;5095459;28;20441;-66
2021/12/03 08:12:51;;;;;;;29.05;16.00;;;2.60;99.90;;;;;;5078916;28;20427;-66
2021/12/03 08:15:17;;;;;;;26.88;14.95;;;2.60;99.90;;;;;;5095937;28;20056;-68
2021/12/03 08:17:47;;;;;;;27.95;14.63;;;2.60;99.90;;;;;;5094917;28;20461;-67
2021/12/03 08:20:13;;;;;;;21.70;13.45;;;2.60;99.90;;;;;;5095654;28;20058;-67
2021/12/03 08:22:39;;;;;;;28.52;14.23;;;2.60;99.90;;;;;;5095782;28;20516;-68
2021/12/03 08:25:05;;;;;;;26.27;13.82;;;2.60;99.90;;;;;;5085373;28;20149;-65
2021/12/03 08:27:31;;;;;;;21.70;12.98;;;2.60;99.90;;;;;;5078120;28;20033;-65
2021/12/03 08:29:57;;;;;;;24.38;13.80;;;2.70;99.90;;;;;;5057279;28;20114;-67
2021/12/03 08:32:23;;;;;;;21.88;12.95;;;2.70;99.90;;;;;;5076318;28;20036;-66
2021/12/03 08:34:48;;;;;;;26.85;13.73;;;2.70;99.90;;;;;;5076374;28;20040;-65
2021/12/03 08:37:14;;;;;;;23.40;13.90;;;2.80;99.90;;;;;;5089944;28;20128;-66
2021/12/03 08:39:40;;;;;;;21.60;12.68;;;2.70;99.90;;;;;;5094928;28;20074;-67
2021/12/03 08:42:08;;;;;;;24.98;13.10;;;2.80;99.90;;;;;;5074495;28;20050;-68
2021/12/03 08:44:33;;;;;;;23.83;12.88;;;2.90;99.90;;;;;;5058433;28;20041;-67
2021/12/03 08:47:04;;;;;;;22.75;13.57;;;2.90;99.90;;;;;;5087570;28;20365;-67
2021/12/03 08:57:24;;;;;;;24.00;12.95;;;2.90;99.90;;;;;;5086343;28;20068;-67
2021/12/03 08:59:55;;;;;;;23.00;12.25;;;2.90;99.90;;;;;;5074537;28;20475;-68
2021/12/03 09:02:22;;;;;;;23.65;11.80;;;3.00;99.90;;;;;;5057753;28;20040;-68
2021/12/03 09:04:49;;;;;;;22.83;11.95;;;3.00;99.90;;;;;;5074793;28;20304;-67
2021/12/03 09:07:15;;;;;;;20.08;10.13;;;3.10;99.90;;;;;;5080832;28;20040;-67
2021/12/03 09:09:41;;;;;;;23.58;10.90;;;3.10;99.90;;;;;;5074507;28;20028;-67
2021/12/03 09:12:07;;;;;;;28.20;11.57;;;3.10;99.90;;;;;;5074349;28;20062;-67
2021/12/03 09:14:39;;;;;;;20.88;9.25;;;3.20;99.90;;;;;;5074279;28;20536;-67
2021/12/03 09:19:51;;;;;;;25.83;9.98;;;3.20;99.90;;;;;;5074517;28;20060;-68
2021/12/03 09:22:34;;;;;;;18.85;9.60;;;3.30;99.90;;;;;;5074469;28;20056;-67
2021/12/03 09:25:06;;;;;;;24.35;10.63;;;3.40;99.90;;;;;;5057997;28;20098;-67
2021/12/03 09:27:32;;;;;;;18.75;8.25;;;3.30;99.90;;;;;;5091203;28;20402;-68
2021/12/03 09:29:58;;;;;;;17.38;9.18;;;3.30;99.90;;;;;;5094566;28;20047;-68
2021/12/03 09:32:31;;;;;;;19.63;8.63;;;3.40;99.90;;;;;;5080245;28;20431;-67
2021/12/03 09:35:00;;;;;;;24.88;8.90;;;3.40;99.90;;;;;;5075024;28;20393;-67
2021/12/03 09:37:26;;;;;;;22.67;8.63;;;3.40;99.90;;;;;;5072826;28;20423;-68
2021/12/03 09:39:52;;;;;;;20.73;8.90;;;3.40;99.90;;;;;;5095255;28;20032;-66
2021/12/03 09:42:21;;;;;;;21.75;8.52;;;3.40;99.90;;;;;;5095085;28;20052;-66
2021/12/03 09:44:52;;;;;;;23.65;8.57;;;3.50;99.90;;;;;;5078809;28;20048;-66
2021/12/03 09:47:19;;;;;;;23.35;8.48;;;3.40;99.90;;;;;;5076327;28;20055;-67
2021/12/03 09:49:46;;;;;;;24.80;8.07;;;3.50;99.90;;;;;;5093688;28;20036;-66
2021/12/03 09:52:26;;;;;;;18.05;7.40;;;3.50;99.90;;;;;;5092495;28;20123;-67
2021/12/03 09:54:57;;;;;;;21.67;7.13;;;3.50;99.90;;;;;;5056425;28;20036;-67
2021/12/03 10:13:34;;;;;;;18.80;6.85;;;3.60;99.90;;;;;;5073358;28;20131;-67
2021/12/03 10:17:14;;;;;;;19.63;6.13;;;3.50;99.90;;;;;;5076681;28;20354;-67
2021/12/03 10:18:57;;;;;;;20.23;6.63;;;3.50;99.90;;;;;;5082705;28;20381;-67
2021/12/03 10:27:35;;;;;;;16.27;6.60;;;3.60;99.90;;;;;;5050803;28;20040;-67
2021/12/03 10:38:53;;;;;;;21.88;6.95;;;3.70;99.90;;;;;;5094401;28;20051;-67
2021/12/03 10:44:30;;;;;;;19.00;5.93;;;3.70;99.90;;;;;;5093198;28;20219;-66
2021/12/03 10:47:22;;;;;;;16.25;5.90;;;3.70;99.90;;;;;;5090954;28;20381;-67
2021/12/03 10:50:04;;;;;;;17.17;6.28;;;3.70;99.90;;;;;;5072943;28;20506;-66
2021/12/03 10:52:51;;;;;;;21.27;6.63;;;3.80;99.90;;;;;;5072477;28;20123;-66
2021/12/03 10:55:54;;;;;;;15.50;5.93;;;3.80;99.90;;;;;;5072595;28;20047;-67
2021/12/03 11:15:12;;;;;;;14.18;4.75;;;3.90;99.90;;;;;;5072068;28;20226;-66
2021/12/03 11:39:30;;;;;;;9.85;3.42;;;4.10;99.90;;;;;;5092191;28;20512;-66
2021/12/03 12:21:53;;;;;;;11.73;5.25;;;3.60;99.90;;;;;;5075300;28;20059;-66
2021/12/03 13:22:34;;;;;;;;;;;4.20;99.90;;;;;;5037630;28;20529;-64
2021/12/03 13:34:30;;;;;;;14.07;5.82;;;4.30;99.90;;;;;;5074254;28;20052;-65
2021/12/03 13:40:40;;;;;;;9.75;4.07;;;4.30;99.90;;;;;;5094571;28;20047;-65
2021/12/03 13:45:58;;;;;;;10.02;4.80;;;4.40;99.90;;;;;;5093676;28;20051;-64
2021/12/03 14:06:58;;;;;;;12.95;5.20;;;4.60;99.90;;;;;;5093510;28;20105;-67
2021/12/03 14:44:17;;;;;;;7.85;4.43;;;4.70;99.90;;;;;;5073660;28;20052;-64
2021/12/03 15:06:04;;;;;;;8.07;4.90;;;4.70;99.90;;;;;;5090372;28;20039;-67
2021/12/03 15:08:42;;;;;;;9.25;4.68;;;4.60;99.90;;;;;;5071353;28;20404;-68
2021/12/03 15:20:22;;;;;;;6.80;4.60;;;4.60;99.90;;;;;;5091704;28;20046;-65
2021/12/03 15:35:56;;;;;;;8.02;5.25;;;4.60;99.90;;;;;;5013227;28;20137;-65
2021/12/03 15:38:38;;;;;;;9.00;5.35;;;4.60;99.90;;;;;;5013796;28;20134;-65
2021/12/03 15:57:58;;;;;;;9.55;5.72;;;4.70;99.90;;;;;;5080208;28;20511;-66
2021/12/03 16:06:14;;;;;;;10.50;6.20;;;4.70;99.90;;;;;;5095966;28;20078;-67
2021/12/03 16:08:40;;;;;;;8.77;5.90;;;4.70;99.90;;;;;;5075326;28;20546;-67
2021/12/03 16:21:47;;;;;;;10.65;7.05;;;4.80;99.90;;;;;;5094633;28;20089;-67
2021/12/03 16:27:19;;;;;;;8.30;6.65;;;4.70;99.90;;;;;;5076343;28;20040;-68
2021/12/03 16:46:26;;;;;;;11.05;8.65;;;4.70;99.90;;;;;;5095969;28;20048;-65
2021/12/03 16:51:30;;;;;;;10.35;8.40;;;4.70;99.90;;;;;;5074622;28;20044;-65
2021/12/03 16:54:05;;;;;;;12.30;8.85;;;4.80;99.90;;;;;;5044794;28;20442;-65
2021/12/03 16:56:32;;;;;;;12.25;9.25;;;4.70;99.90;;;;;;5087754;28;20036;-65
2021/12/03 16:58:59;;;;;;;10.48;9.32;;;4.60;99.90;;;;;;5074368;28;20055;-65
2021/12/03 17:04:17;;;;;;;11.75;9.40;;;4.70;99.90;;;;;;5095686;28;20052;-64
2021/12/03 17:58:20;;;;;;;20.65;16.67;;;5.00;99.90;;;;;;5093698;28;20129;-65
2021/12/03 18:00:56;;;;;;;18.35;15.20;;;4.90;99.90;;;;;;5093672;28;20119;-65
2021/12/03 18:08:30;;;;;;;21.25;16.33;;;4.80;99.90;;;;;;5088661;28;20609;-66
2021/12/03 18:11:25;;;;;;;20.63;15.90;;;4.90;99.90;;;;;;5081314;28;20053;-65
2021/12/03 18:15:02;;;;;;;20.25;17.15;;;5.00;99.90;;;;;;5074567;28;20226;-65
2021/12/03 18:55:31;;;;;;;21.27;16.30;;;4.90;99.90;;;;;;5091349;28;20119;-64
2021/12/03 18:58:03;;;;;;;20.77;17.08;;;4.80;99.90;;;;;;5094045;28;20036;-65
2021/12/03 19:00:32;;;;;;;20.98;15.60;;;4.80;99.90;;;;;;5092709;28;20453;-64
2021/12/03 19:03:04;;;;;;;21.08;16.98;;;4.80;99.90;;;;;;5093893;28;20365;-65
2021/12/03 19:05:50;;;;;;;21.48;16.90;;;4.80;99.90;;;;;;5093351;28;20036;-64
2021/12/03 19:08:19;;;;;;;23.00;17.17;;;4.80;99.90;;;;;;5092620;28;20115;-64
2021/12/03 19:10:49;;;;;;;23.88;19.38;;;4.80;99.90;;;;;;5093308;28;20060;-64
2021/12/03 19:13:26;;;;;;;22.73;16.70;;;4.70;99.90;;;;;;5093766;28;20056;-65
2021/12/03 19:15:52;;;;;;;21.38;17.80;;;4.70;99.90;;;;;;5092386;28;20449;-66
2021/12/03 19:18:21;;;;;;;22.38;17.40;;;4.70;99.90;;;;;;5093013;28;20071;-64
2021/12/03 19:20:48;;;;;;;22.67;17.27;;;4.70;99.90;;;;;;5092455;28;20532;-64
2021/12/03 19:23:14;;;;;;;23.95;17.75;;;4.70;99.90;;;;;;5092163;28;20366;-65
2021/12/03 19:25:40;;;;;;;23.38;18.40;;;4.70;99.90;;;;;;5093262;28;20047;-65
2021/12/03 19:28:06;;;;;;;23.15;18.02;;;4.70;99.90;;;;;;5093501;28;20051;-65
2021/12/03 19:30:31;;;;;;;22.67;17.90;;;4.70;99.90;;;;;;5093259;28;20054;-65
2021/12/03 19:32:58;;;;;;;20.67;16.40;;;4.70;99.90;;;;;;5093580;28;20365;-65
2021/12/03 19:35:25;;;;;;;23.90;19.02;;;4.70;99.90;;;;;;5092095;28;20048;-65
2021/12/03 19:37:57;;;;;;;25.55;18.35;;;4.80;99.90;;;;;;5093403;28;20032;-65
2021/12/03 19:40:25;;;;;;;23.80;18.58;;;4.80;99.90;;;;;;5093203;28;20346;-66
2021/12/03 19:42:59;;;;;;;23.05;18.48;;;4.80;99.90;;;;;;5093529;28;20115;-65
2021/12/03 19:45:28;;;;;;;26.95;19.48;;;4.80;99.90;;;;;;5093186;28;20051;-65
2021/12/03 19:52:56;;;;;;;25.13;20.27;;;4.70;99.90;;;;;;5093446;28;20131;-65
2021/12/03 19:55:22;;;;;;;26.95;19.50;;;4.70;99.90;;;;;;5092943;28;20044;-65
2021/12/03 19:57:48;;;;;;;26.38;19.02;;;4.70;99.90;;;;;;5092924;28;20722;-65
2021/12/03 20:00:14;;;;;;;22.08;17.05;;;4.70;99.90;;;;;;5093295;28;20039;-67
2021/12/03 20:02:40;;;;;;;25.30;17.98;;;4.80;99.90;;;;;;5093083;28;20040;-64
2021/12/03 20:05:06;;;;;;;26.85;18.88;;;4.80;99.90;;;;;;5093037;28;20040;-64
2021/12/03 20:07:31;;;;;;;26.77;18.48;;;4.70;99.90;;;;;;5074932;28;20043;-63
2021/12/03 20:10:09;;;;;;;26.63;20.83;;;4.80;99.90;;;;;;5093357;28;20044;-64
2021/12/03 20:12:35;;;;;;;27.02;19.23;;;4.70;99.90;;;;;;5093021;28;20407;-64
2021/12/03 20:15:03;;;;;;;26.40;18.73;;;4.80;99.90;;;;;;5092892;28;20044;-63
2021/12/03 20:17:32;;;;;;;26.05;19.38;;;4.80;99.90;;;;;;5091433;28;20048;-65
2021/12/03 20:20:01;;;;;;;23.67;17.65;;;4.70;99.90;;;;;;5092822;28;20048;-65